Time;durP1;ratioP1;P1;durP2;ratioP2;P2;SDS_P1;SDS_P2;PMS_P1;PMS_P2;Temp;Humidity;BMP_temperature;BMP_pressure;BME280_temperature;BME280_humidity;BME280_pressure;Samples;Min_cycle;Max_cycle;Signal;HPM_P1;HPM_P2
2021/01/23 00:00:38;;;;;;;5.03;3.27;;;;;;;-2.06;100.00;99145.34;4949806;28;20059;-68
2021/01/23 00:03:04;;;;;;;4.27;3.00;;;;;;;-2.05;100.00;99153.09;4949528;28;20058;-68
2021/01/23 00:05:31;;;;;;;4.07;3.00;;;;;;;-2.05;100.00;99144.47;4963436;28;20411;-68
2021/01/23 00:08:01;;;;;;;4.37;2.77;;;;;;;-2.00;100.00;99160.91;4963973;28;20043;-68
2021/01/23 00:10:31;;;;;;;5.17;3.37;;;;;;;-1.92;100.00;99169.56;4968742;28;20045;-68
2021/01/23 00:12:57;;;;;;;8.63;4.07;;;;;;;-1.88;100.00;99163.53;4960800;28;20050;-68
2021/01/23 00:15:23;;;;;;;4.93;3.50;;;;;;;-1.84;100.00;99172.22;4967204;28;20078;-67
2021/01/23 00:17:50;;;;;;;5.70;3.33;;;;;;;-1.83;100.00;99172.22;4947290;28;20511;-67
2021/01/23 00:20:16;;;;;;;7.37;3.77;;;;;;;-1.82;100.00;99171.34;4949130;28;20363;-68
2021/01/23 00:22:42;;;;;;;4.93;3.20;;;;;;;-1.80;100.00;99173.94;4969887;28;20680;-67
2021/01/23 00:25:09;;;;;;;6.17;3.40;;;;;;;-1.81;100.00;99167.91;4966328;28;20572;-67
2021/01/23 00:27:35;;;;;;;6.97;3.87;;;;;;;-1.82;100.00;99166.16;4950579;28;20050;-68
2021/01/23 00:30:03;;;;;;;6.53;3.60;;;;;;;-1.85;100.00;99150.63;4948360;28;20046;-68
2021/01/23 00:32:31;;;;;;;5.97;3.20;;;;;;;-1.84;100.00;99156.69;4950088;28;20031;-67
2021/01/23 00:34:58;;;;;;;5.77;3.10;;;;;;;-1.86;100.00;99156.63;4948160;28;20135;-68
2021/01/23 00:37:24;;;;;;;5.20;3.20;;;;;;;-1.84;100.00;99154.09;4967994;28;20523;-67
2021/01/23 00:39:50;;;;;;;5.30;3.60;;;;;;;-1.81;100.00;99161.84;4935406;28;20051;-68
2021/01/23 00:42:16;;;;;;;6.10;3.20;;;;;;;-1.82;100.00;99150.63;4966776;28;20057;-68
2021/01/23 00:44:42;;;;;;;5.73;3.50;;;;;;;-1.82;100.00;99145.47;4941181;28;20073;-68
2021/01/23 00:47:09;;;;;;;5.23;3.63;;;;;;;-1.83;100.00;99138.56;4961714;28;20098;-68
2021/01/23 00:49:35;;;;;;;4.43;3.03;;;;;;;-1.86;100.00;99135.94;4931136;29;20039;-67
2021/01/23 00:52:04;;;;;;;6.23;3.37;;;;;;;-1.88;100.00;99129.03;4948278;28;20048;-68
2021/01/23 00:54:31;;;;;;;4.97;3.00;;;;;;;-1.90;100.00;99121.25;4950828;28;20043;-67
2021/01/23 00:56:57;;;;;;;6.33;3.17;;;;;;;-1.90;100.00;99118.69;4946019;28;20595;-68
2021/01/23 00:59:23;;;;;;;5.10;3.27;;;;;;;-1.91;100.00;99114.34;4966392;28;20183;-68
2021/01/23 01:01:49;;;;;;;4.13;3.13;;;;;;;-1.87;100.00;99126.44;4968152;28;20061;-68
2021/01/23 01:04:19;;;;;;;6.67;3.47;;;;;;;-1.86;100.00;99110.06;4949696;28;20697;-68
2021/01/23 01:06:45;;;;;;;5.50;3.40;;;;;;;-1.86;100.00;99110.06;4964438;28;20047;-68
2021/01/23 01:09:11;;;;;;;5.53;3.40;;;;;;;-1.85;100.00;99116.09;4967999;28;20030;-67
2021/01/23 01:11:37;;;;;;;6.30;3.77;;;;;;;-1.82;100.00;99105.78;4966697;28;20071;-67
2021/01/23 01:14:03;;;;;;;4.73;3.43;;;;;;;-1.84;100.00;99108.34;4948740;28;20043;-67
2021/01/23 01:16:32;;;;;;;6.83;3.50;;;;;;;-1.85;100.00;99098.88;4950265;28;20054;-67
2021/01/23 01:18:58;;;;;;;5.47;3.57;;;;;;;-1.87;100.00;99085.03;4964070;28;20066;-67
2021/01/23 01:21:24;;;;;;;5.40;3.83;;;;;;;-1.87;100.00;99079.84;4966551;28;20051;-69
2021/01/23 01:23:50;;;;;;;6.17;3.83;;;;;;;-1.90;100.00;99074.69;4960909;28;20038;-69
2021/01/23 01:26:16;;;;;;;5.57;3.10;;;;;;;-1.91;100.00;99075.53;4962256;28;20451;-68
2021/01/23 01:28:45;;;;;;;4.50;3.23;;;;;;;-1.91;100.00;99070.38;4947597;28;20111;-69
2021/01/23 01:31:11;;;;;;;5.33;3.27;;;;;;;-1.90;100.00;99084.16;4945843;28;20043;-69
2021/01/23 01:33:37;;;;;;;5.43;2.97;;;;;;;-1.89;100.00;99078.13;4965746;28;20067;-68
2021/01/23 01:36:04;;;;;;;7.17;4.30;;;;;;;-1.81;100.00;99098.00;4944809;28;20047;-67
2021/01/23 01:38:30;;;;;;;8.50;4.43;;;;;;;-1.79;100.00;99100.59;4948179;28;20689;-69
2021/01/23 01:40:56;;;;;;;7.53;5.07;;;;;;;-1.79;100.00;99105.78;4963924;28;20041;-68
2021/01/23 01:43:22;;;;;;;6.73;3.93;;;;;;;-1.81;100.00;99108.38;4964410;28;20043;-67
2021/01/23 01:45:49;;;;;;;7.93;4.00;;;;;;;-1.81;100.00;99108.38;4965582;28;20047;-68
2021/01/23 01:48:15;;;;;;;7.20;3.90;;;;;;;-1.80;100.00;99104.03;4947966;28;20082;-68
2021/01/23 01:50:42;;;;;;;7.80;4.20;;;;;;;-1.83;100.00;99117.84;4965340;28;20061;-70
2021/01/23 01:53:09;;;;;;;6.37;3.97;;;;;;;-1.83;100.00;99110.09;4948373;28;20039;-70
2021/01/23 01:55:38;;;;;;;8.00;4.60;;;;;;;-1.84;100.00;99108.34;4925235;28;20057;-70
2021/01/23 01:58:04;;;;;;;6.57;4.10;;;;;;;-1.85;100.00;99095.38;4927911;28;20501;-70
2021/01/23 02:00:30;;;;;;;5.77;3.50;;;;;;;-1.86;100.00;99104.88;4949314;28;20070;-70
2021/01/23 02:03:03;;;;;;;7.70;3.80;;;;;;;-1.85;100.00;99104.03;4965681;28;20042;-69
2021/01/23 02:05:50;;;;;;;7.67;4.47;;;;;;;-1.83;100.00;99104.91;4965790;28;20051;-68
2021/01/23 02:08:30;;;;;;;6.47;3.80;;;;;;;-1.81;100.00;99104.91;4935064;28;20043;-68
2021/01/23 02:11:29;;;;;;;5.67;3.97;;;;;;;-1.81;100.00;99102.31;4950741;28;20448;-69
2021/01/23 02:14:23;;;;;;;5.90;3.60;;;;;;;-1.83;100.00;99104.91;4933698;28;20125;-69
2021/01/23 02:16:52;;;;;;;7.88;4.40;;;;;;;-1.81;100.00;99098.00;4951894;28;20062;-69
2021/01/23 02:19:28;;;;;;;8.27;4.57;;;;;;;-1.82;100.00;99106.63;4935996;28;20050;-70
2021/01/23 02:21:58;;;;;;;7.70;4.90;;;;;;;-1.81;100.00;99116.13;4946861;28;20050;-70
2021/01/23 02:24:25;;;;;;;6.17;4.00;;;;;;;-1.81;100.00;99118.72;4966128;28;20064;-69
2021/01/23 02:27:45;;;;;;;7.97;3.63;;;;;;;-1.81;100.00;99113.53;4950616;28;20633;-69
2021/01/23 02:30:27;;;;;;;6.53;4.20;;;;;;;-1.79;100.00;99121.31;4933236;28;20047;-69
2021/01/23 02:32:58;;;;;;;6.22;3.65;;;;;;;-1.80;100.00;99119.56;4949569;28;20129;-69
2021/01/23 02:35:25;;;;;;;6.90;3.93;;;;;;;-1.81;100.00;99123.88;4950061;28;20046;-69
2021/01/23 02:37:53;;;;;;;6.27;4.30;;;;;;;-1.80;100.00;99124.75;4931741;28;20050;-69
2021/01/23 02:40:20;;;;;;;6.43;3.67;;;;;;;-1.80;100.00;99125.63;4949970;28;20081;-69
2021/01/23 02:42:49;;;;;;;6.97;3.97;;;;;;;-1.78;100.00;99125.63;4950642;28;20050;-69
2021/01/23 02:45:15;;;;;;;7.50;4.17;;;;;;;-1.78;100.00;99123.03;4950329;28;20441;-69
2021/01/23 02:47:42;;;;;;;8.20;4.27;;;;;;;-1.78;100.00;99123.88;4947176;28;20053;-69
2021/01/23 02:50:09;;;;;;;7.43;4.30;;;;;;;-1.76;100.00;99129.09;4949089;28;20620;-69
2021/01/23 02:53:28;;;;;;;6.90;4.10;;;;;;;-1.74;100.00;99122.19;4951059;28;20109;-69
2021/01/23 02:55:59;;;;;;;9.00;4.53;;;;;;;-1.74;100.00;99119.63;4963483;28;20054;-69
2021/01/23 02:58:26;;;;;;;6.63;4.20;;;;;;;-1.74;100.00;99117.03;4949951;28;20066;-69
2021/01/23 03:00:53;;;;;;;6.90;3.90;;;;;;;-1.72;100.00;99120.47;4950983;28;20046;-69
2021/01/23 03:03:19;;;;;;;6.97;4.40;;;;;;;-1.73;100.00;99124.78;4950332;28;20039;-69
2021/01/23 03:05:46;;;;;;;7.37;4.10;;;;;;;-1.72;100.00;99123.06;4949856;28;20480;-69
2021/01/23 03:08:16;;;;;;;7.93;4.23;;;;;;;-1.71;100.00;99123.06;4950018;28;20050;-69
2021/01/23 03:10:44;;;;;;;6.63;3.80;;;;;;;-1.72;100.00;99110.97;4950493;28;20066;-69
2021/01/23 03:13:11;;;;;;;7.60;4.67;;;;;;;-1.72;100.00;99108.41;4948760;28;20476;-69
2021/01/23 03:15:38;;;;;;;9.10;5.90;;;;;;;-1.71;100.00;99107.53;4949526;28;20097;-69
2021/01/23 03:18:05;;;;;;;9.13;5.13;;;;;;;-1.67;100.00;99115.34;4949550;28;20046;-69
2021/01/23 03:20:32;;;;;;;10.83;5.10;;;;;;;-1.69;100.00;99110.13;4950702;28;20488;-69
2021/01/23 03:22:59;;;;;;;7.00;4.20;;;;;;;-1.70;100.00;99117.03;4965881;28;20039;-69
2021/01/23 03:25:26;;;;;;;6.90;4.23;;;;;;;-1.71;100.00;99104.94;4950600;28;20547;-69
2021/01/23 03:27:56;;;;;;;6.30;4.00;;;;;;;-1.72;100.00;99108.41;4951023;28;20085;-69
2021/01/23 03:30:23;;;;;;;6.27;3.90;;;;;;;-1.72;100.00;99103.22;4950747;28;20505;-69
2021/01/23 03:32:49;;;;;;;5.70;3.60;;;;;;;-1.72;100.00;99110.13;4966858;28;20039;-69
2021/01/23 03:35:19;;;;;;;6.70;4.00;;;;;;;-1.73;100.00;99116.16;4949987;28;20034;-69
2021/01/23 03:37:47;;;;;;;6.03;4.30;;;;;;;-1.72;100.00;99123.06;4949588;28;20098;-69
2021/01/23 03:40:14;;;;;;;7.20;4.30;;;;;;;-1.72;100.00;99118.75;4946679;28;20098;-69
2021/01/23 03:42:41;;;;;;;6.43;4.27;;;;;;;-1.71;100.00;99123.06;4971004;28;20046;-68
2021/01/23 03:45:08;;;;;;;6.23;3.87;;;;;;;-1.72;100.00;99113.56;4967707;28;20047;-69
2021/01/23 03:47:35;;;;;;;6.47;3.77;;;;;;;-1.71;100.00;99117.88;4949960;28;20038;-70
2021/01/23 03:50:04;;;;;;;5.37;3.47;;;;;;;-1.69;100.00;99117.88;4945987;29;20055;-69
2021/01/23 03:52:30;;;;;;;6.73;3.50;;;;;;;-1.71;100.00;99120.47;4948681;28;20109;-68
2021/01/23 03:54:56;;;;;;;7.13;4.00;;;;;;;-1.70;100.00;99127.38;4951888;28;20708;-68
2021/01/23 03:57:23;;;;;;;4.77;3.70;;;;;;;-1.70;100.00;99121.34;4950574;28;20043;-69
2021/01/23 03:59:49;;;;;;;8.27;4.37;;;;;;;-1.69;100.00;99123.06;4951980;28;20457;-69
2021/01/23 04:02:15;;;;;;;7.17;4.60;;;;;;;-1.66;100.00;99114.47;4952575;28;20403;-68
2021/01/23 04:04:42;;;;;;;8.17;4.50;;;;;;;-1.66;100.00;99111.88;4969226;28;20039;-69
2021/01/23 04:07:08;;;;;;;6.63;4.23;;;;;;;-1.65;100.00;99126.56;4952290;28;20043;-69
2021/01/23 04:09:35;;;;;;;7.77;4.47;;;;;;;-1.66;100.00;99117.06;4969276;28;20050;-67
2021/01/23 04:12:03;;;;;;;7.63;4.10;;;;;;;-1.66;100.00;99107.56;4952284;28;20623;-66
2021/01/23 04:14:29;;;;;;;6.37;4.00;;;;;;;-1.66;100.00;99106.69;4968851;28;20039;-69
2021/01/23 04:16:55;;;;;;;6.67;3.70;;;;;;;-1.64;100.00;99104.97;4951049;28;20043;-69
2021/01/23 04:19:23;;;;;;;5.20;3.17;;;;;;;-1.64;100.00;99100.66;4950280;28;20050;-68
2021/01/23 04:21:50;;;;;;;6.87;4.10;;;;;;;-1.64;100.00;99097.22;4924384;28;20043;-68
2021/01/23 04:24:16;;;;;;;5.30;3.43;;;;;;;-1.63;100.00;99098.94;4954895;28;20043;-69
2021/01/23 04:26:43;;;;;;;6.80;4.20;;;;;;;-1.63;100.00;99086.84;4955399;28;20492;-67
2021/01/23 04:29:09;;;;;;;7.37;4.97;;;;;;;-1.60;100.00;99088.56;4933358;28;20043;-69
2021/01/23 04:31:36;;;;;;;6.30;3.67;;;;;;;-1.60;100.00;99081.66;4937915;28;20050;-68
2021/01/23 04:34:03;;;;;;;5.00;3.60;;;;;;;-1.60;100.00;99080.81;4951456;28;20070;-69
2021/01/23 04:36:29;;;;;;;7.93;4.30;;;;;;;-1.61;100.00;99079.94;4967479;28;20046;-70
2021/01/23 04:38:55;;;;;;;6.83;3.40;;;;;;;-1.59;100.00;99077.38;4968640;28;20035;-69
2021/01/23 04:41:21;;;;;;;6.10;3.83;;;;;;;-1.62;100.00;99078.22;4967925;28;20046;-68
2021/01/23 04:43:48;;;;;;;8.43;4.47;;;;;;;-1.60;100.00;99080.81;4919285;28;20049;-69
2021/01/23 04:46:19;;;;;;;6.23;4.10;;;;;;;-1.60;100.00;99076.50;4951783;28;20058;-69
2021/01/23 04:48:45;;;;;;;7.50;4.30;;;;;;;-1.59;100.00;99070.47;4946513;28;20038;-69
2021/01/23 04:51:11;;;;;;;6.60;4.67;;;;;;;-1.60;100.00;99066.13;4950962;28;20074;-69
2021/01/23 04:53:39;;;;;;;5.37;3.90;;;;;;;-1.59;100.00;99070.47;4944987;28;20039;-69
2021/01/23 04:56:05;;;;;;;6.60;3.50;;;;;;;-1.57;100.00;99067.88;4950594;28;20535;-69
2021/01/23 04:58:32;;;;;;;7.43;4.57;;;;;;;-1.56;100.00;99067.03;4949907;28;20401;-69
2021/01/23 05:00:58;;;;;;;6.60;4.13;;;;;;;-1.54;100.00;99070.47;4946769;28;20045;-69
2021/01/23 05:03:24;;;;;;;7.00;3.83;;;;;;;-1.54;100.00;99057.53;4968217;28;20098;-69
2021/01/23 05:06:04;;;;;;;7.70;4.37;;;;;;;-1.52;100.00;99066.16;4968527;28;20054;-69
2021/01/23 05:08:37;;;;;;;7.47;4.70;;;;;;;-1.53;100.00;99056.66;4949625;28;20097;-70
2021/01/23 05:11:04;;;;;;;5.57;3.73;;;;;;;-1.54;100.00;99050.63;4934275;28;20344;-70
2021/01/23 05:13:31;;;;;;;9.47;4.20;;;;;;;-1.53;100.00;99059.25;4974009;28;20089;-69
2021/01/23 05:15:58;;;;;;;6.10;3.90;;;;;;;-1.53;100.00;99069.59;4946558;28;20046;-70
2021/01/23 05:18:24;;;;;;;8.67;5.70;;;;;;;-1.53;100.00;99065.28;4966585;28;20049;-69
2021/01/23 05:20:51;;;;;;;8.63;4.70;;;;;;;-1.52;100.00;99073.91;4950242;28;20043;-69
2021/01/23 05:23:20;;;;;;;6.53;4.10;;;;;;;-1.53;100.00;99073.06;4950093;28;20085;-68
2021/01/23 05:26:04;;;;;;;6.03;3.30;;;;;;;-1.54;100.00;99067.88;4966052;28;20047;-68
2021/01/23 05:28:34;;;;;;;6.00;3.83;;;;;;;-1.53;100.00;99070.47;4922993;28;20074;-69
2021/01/23 05:31:02;;;;;;;8.03;4.10;;;;;;;-1.53;100.00;99072.19;4933855;28;20043;-68
2021/01/23 05:33:33;;;;;;;8.33;4.37;;;;;;;-1.53;100.00;99079.97;4967424;28;20034;-69
2021/01/23 05:36:08;;;;;;;5.70;3.70;;;;;;;-1.54;100.00;99081.69;4919624;29;20060;-69
2021/01/23 05:38:42;;;;;;;6.47;3.80;;;;;;;-1.54;100.00;99084.28;4970687;28;20049;-69
2021/01/23 05:41:08;;;;;;;4.70;3.72;;;;;;;-1.54;100.00;99080.84;4936776;28;21807;-69
2021/01/23 05:43:54;;;;;;;6.57;4.00;;;;;;;-1.54;100.00;99078.25;4953315;28;20081;-69
2021/01/23 05:46:26;;;;;;;5.63;3.50;;;;;;;-1.54;100.00;99071.34;4965682;28;20551;-69
2021/01/23 05:48:53;;;;;;;5.63;3.90;;;;;;;-1.54;100.00;99073.06;4970531;28;20039;-70
2021/01/23 05:51:20;;;;;;;5.77;4.03;;;;;;;-1.55;100.00;99073.94;4954242;28;20455;-69
2021/01/23 05:53:47;;;;;;;7.50;3.70;;;;;;;-1.55;100.00;99081.69;4951250;28;20035;-68
2021/01/23 05:56:13;;;;;;;5.13;3.47;;;;;;;-1.56;100.00;99083.41;4954042;28;20416;-69
2021/01/23 05:58:41;;;;;;;7.47;3.97;;;;;;;-1.55;100.00;99084.28;4970171;28;20047;-70
2021/01/23 06:01:09;;;;;;;6.73;3.90;;;;;;;-1.54;100.00;99079.09;4969523;28;20108;-69
2021/01/23 06:03:41;;;;;;;6.13;3.97;;;;;;;-1.54;100.00;99080.84;4976932;23;20399;-73
2021/01/23 06:06:08;;;;;;;7.00;3.70;;;;;;;-1.55;100.00;99076.50;4972608;28;20046;-72
2021/01/23 06:08:41;;;;;;;6.60;3.67;;;;;;;-1.55;100.00;99077.38;4972108;28;20423;-72
2021/01/23 06:11:34;;;;;;;6.90;4.00;;;;;;;-1.54;100.00;99075.66;4972859;28;20039;-72
2021/01/23 06:14:00;;;;;;;5.07;3.50;;;;;;;-1.54;100.00;99081.69;4978872;28;20582;-72
2021/01/23 06:16:32;;;;;;;4.40;3.40;;;;;;;-1.53;100.00;99087.72;4973049;28;20131;-71
2021/01/23 06:19:05;;;;;;;4.97;3.37;;;;;;;-1.54;100.00;99079.09;4989383;28;20046;-73
2021/01/23 06:21:46;;;;;;;6.73;3.80;;;;;;;-1.53;100.00;99078.25;4988537;28;20046;-72
2021/01/23 06:24:17;;;;;;;6.60;4.03;;;;;;;-1.52;100.00;99084.28;4987722;28;20069;-72
2021/01/23 06:26:52;;;;;;;7.90;3.50;;;;;;;-1.50;100.00;99077.41;4988411;28;20034;-73
2021/01/23 06:29:34;;;;;;;5.27;3.47;;;;;;;-1.50;100.00;99085.16;4982271;28;20046;-72
2021/01/23 06:32:12;;;;;;;5.43;3.63;;;;;;;-1.50;100.00;99088.63;4989700;28;20039;-72
2021/01/23 06:35:06;;;;;;;6.53;3.70;;;;;;;-1.50;100.00;99091.22;4987999;28;20043;-74
2021/01/23 06:37:34;;;;;;;4.37;3.23;;;;;;;-1.49;100.00;99089.50;4964293;28;20044;-72
2021/01/23 06:40:10;;;;;;;6.33;3.80;;;;;;;-1.46;100.00;99084.31;4972262;28;20113;-72
2021/01/23 06:42:37;;;;;;;6.30;3.67;;;;;;;-1.45;100.00;99086.03;4987791;28;20133;-72
2021/01/23 06:45:19;;;;;;;6.23;3.60;;;;;;;-1.46;100.00;99079.13;4972032;28;20042;-73
2021/01/23 06:47:51;;;;;;;7.63;4.20;;;;;;;-1.44;100.00;99082.56;4971335;28;21761;-72
2021/01/23 06:50:27;;;;;;;6.30;4.10;;;;;;;-1.45;100.00;99073.06;4971837;28;20566;-72
2021/01/23 06:52:54;;;;;;;6.50;4.27;;;;;;;-1.44;100.00;99075.66;4971154;28;20373;-72
2021/01/23 06:55:42;;;;;;;7.37;4.27;;;;;;;-1.43;100.00;99090.38;4989746;28;20061;-72
2021/01/23 06:58:13;;;;;;;7.17;3.40;;;;;;;-1.42;100.00;99091.25;4969768;28;20049;-73
2021/01/23 07:00:39;;;;;;;5.63;4.17;;;;;;;-1.42;100.00;99092.09;4983498;28;20046;-72
2021/01/23 07:03:10;;;;;;;6.30;3.93;;;;;;;-1.40;100.00;99088.66;4988089;28;20034;-72
2021/01/23 07:05:44;;;;;;;5.23;3.60;;;;;;;-1.39;100.00;99091.22;4971425;28;20034;-72
2021/01/23 07:08:23;;;;;;;5.13;3.33;;;;;;;-1.39;100.00;99091.22;4971349;28;20038;-73
2021/01/23 07:11:11;;;;;;;6.87;3.80;;;;;;;-1.39;100.00;99096.41;4982335;28;20096;-72
2021/01/23 07:13:39;;;;;;;5.83;3.40;;;;;;;-1.38;100.00;99097.28;4988205;28;20431;-73
2021/01/23 07:16:05;;;;;;;5.57;3.73;;;;;;;-1.36;100.00;99106.78;4995266;28;20034;-72
2021/01/23 07:18:32;;;;;;;5.83;3.77;;;;;;;-1.36;100.00;99109.38;4971702;28;20046;-73
2021/01/23 07:21:00;;;;;;;6.73;4.10;;;;;;;-1.34;100.00;99109.38;4987083;28;20061;-72
2021/01/23 07:23:27;;;;;;;5.87;4.17;;;;;;;-1.33;100.00;99104.22;4955479;28;20137;-72
2021/01/23 07:25:58;;;;;;;6.60;3.97;;;;;;;-1.29;100.00;99115.44;4988024;28;20046;-73
2021/01/23 07:28:24;;;;;;;7.57;5.00;;;;;;;-1.29;100.00;99118.88;4970845;28;20046;-72
2021/01/23 07:30:50;;;;;;;8.77;4.23;;;;;;;-1.28;100.00;99120.59;4988967;28;20054;-72
2021/01/23 07:33:30;;;;;;;7.70;4.20;;;;;;;-1.28;100.00;99120.59;4988774;28;20250;-73
2021/01/23 07:35:56;;;;;;;6.83;3.60;;;;;;;-1.25;100.00;99127.53;4989514;28;20569;-73
2021/01/23 07:38:22;;;;;;;7.73;4.50;;;;;;;-1.23;100.00;99128.41;4987071;28;20493;-73
2021/01/23 07:40:52;;;;;;;5.87;3.60;;;;;;;-1.21;100.00;99129.25;4969643;28;20050;-73
2021/01/23 07:43:18;;;;;;;6.77;4.40;;;;;;;-1.19;100.00;99128.41;4970997;28;20056;-73
2021/01/23 07:45:45;;;;;;;8.63;5.00;;;;;;;-1.17;100.00;99125.84;4971171;28;20042;-73
2021/01/23 07:48:11;;;;;;;7.50;4.43;;;;;;;-1.14;100.00;99128.41;4969437;28;20046;-72
2021/01/23 07:50:40;;;;;;;8.17;4.40;;;;;;;-1.12;100.00;99134.47;4982117;28;20092;-73
2021/01/23 07:53:16;;;;;;;6.97;4.20;;;;;;;-1.10;100.00;99135.31;4985465;28;20089;-73
2021/01/23 07:55:44;;;;;;;7.13;4.70;;;;;;;-1.06;100.00;99138.81;4988890;28;20057;-73
2021/01/23 07:58:11;;;;;;;6.67;4.50;;;;;;;-1.05;100.00;99131.03;4985977;28;20042;-73
2021/01/23 08:00:37;;;;;;;6.77;4.13;;;;;;;-1.01;100.00;99137.06;4970474;28;20451;-73
2021/01/23 08:03:04;;;;;;;7.07;4.57;;;;;;;-1.00;100.00;99139.69;4985148;28;20410;-73
2021/01/23 08:05:47;;;;;;;8.73;5.07;;;;;;;-0.95;100.00;99139.69;4969779;28;20034;-72
2021/01/23 08:08:31;;;;;;;12.30;6.57;;;;;;;-0.94;100.00;99146.59;4969166;28;20510;-72
2021/01/23 08:11:05;;;;;;;11.30;7.30;;;;;;;-0.92;100.00;99143.16;4953321;28;20043;-72
2021/01/23 08:13:33;;;;;;;11.43;7.65;;;;;;;-0.91;100.00;99142.28;4953963;28;20061;-73
2021/01/23 08:16:13;;;;;;;11.40;7.03;;;;;;;-0.90;100.00;99151.78;4985770;28;20499;-72
2021/01/23 08:18:40;;;;;;;9.07;6.87;;;;;;;-0.87;100.00;99150.91;4969155;28;20496;-72
2021/01/23 08:21:19;;;;;;;10.33;7.27;;;;;;;-0.84;100.00;99145.75;4970083;28;20038;-72
2021/01/23 08:23:46;;;;;;;12.43;7.73;;;;;;;-0.81;100.00;99150.94;4969166;28;20518;-73
2021/01/23 08:26:13;;;;;;;10.73;7.40;;;;;;;-0.80;100.00;99147.47;4986369;28;20113;-72
2021/01/23 08:28:48;;;;;;;11.93;7.73;;;;;;;-0.78;100.00;99148.34;4969746;28;20042;-72
2021/01/23 08:31:19;;;;;;;10.35;6.40;;;;;;;-0.76;100.00;99153.50;4986851;28;20133;-73
2021/01/23 08:33:48;;;;;;;11.87;8.07;;;;;;;-0.74;100.00;99150.09;4969609;28;20038;-73
2021/01/23 08:36:15;;;;;;;12.17;7.63;;;;;;;-0.72;100.00;99152.66;4967647;28;20034;-72
2021/01/23 08:38:45;;;;;;;12.77;7.97;;;;;;;-0.70;100.00;99145.75;4985267;28;20137;-73
2021/01/23 08:41:11;;;;;;;13.20;8.70;;;;;;;-0.70;100.00;99149.22;4968507;28;20034;-73
2021/01/23 08:43:37;;;;;;;15.50;10.67;;;;;;;-0.67;100.00;99145.78;4969094;28;20747;-73
2021/01/23 08:46:03;;;;;;;13.47;8.83;;;;;;;-0.65;100.00;99154.41;4986639;28;20038;-73
2021/01/23 08:48:32;;;;;;;13.37;9.30;;;;;;;-0.65;100.00;99149.22;4985788;28;20041;-72
2021/01/23 08:50:58;;;;;;;12.83;8.73;;;;;;;-0.64;100.00;99146.63;4967335;28;20050;-73
2021/01/23 08:53:25;;;;;;;12.17;8.00;;;;;;;-0.62;100.00;99151.81;4953178;28;20727;-73
2021/01/23 08:55:51;;;;;;;12.20;7.70;;;;;;;-0.59;100.00;99154.38;4986677;28;20046;-73
2021/01/23 08:58:17;;;;;;;11.23;7.30;;;;;;;-0.59;100.00;99144.00;4982918;28;20790;-73
2021/01/23 09:00:43;;;;;;;12.33;7.33;;;;;;;-0.56;100.00;99133.66;4984324;28;20096;-73
2021/01/23 09:03:09;;;;;;;14.03;8.90;;;;;;;-0.54;100.00;99144.03;4986322;28;20093;-73
2021/01/23 09:05:35;;;;;;;11.30;8.03;;;;;;;-0.50;100.00;99133.66;4953886;28;20038;-73
2021/01/23 09:08:02;;;;;;;10.73;7.70;;;;;;;-0.46;100.00;99131.91;4986912;28;20633;-73
2021/01/23 09:10:29;;;;;;;11.53;8.20;;;;;;;-0.43;100.00;99135.34;4968162;28;20209;-73
2021/01/23 09:12:55;;;;;;;13.03;7.90;;;;;;;-0.40;100.00;99130.19;4985823;28;20030;-73
2021/01/23 09:15:21;;;;;;;11.70;8.10;;;;;;;-0.36;100.00;99131.03;4968638;28;20141;-73
2021/01/23 09:17:47;;;;;;;15.13;9.40;;;;;;;-0.33;100.00;99129.31;4986637;28;20034;-73
2021/01/23 09:20:14;;;;;;;11.07;8.77;;;;;;;-0.31;100.00;99122.38;4983074;28;20440;-73
2021/01/23 09:22:40;;;;;;;12.70;8.77;;;;;;;-0.26;100.00;99124.09;4966875;28;20046;-73
2021/01/23 09:25:07;;;;;;;14.40;8.93;;;;;;;-0.25;100.00;99124.13;4985311;28;20105;-74
2021/01/23 09:27:33;;;;;;;12.93;8.23;;;;;;;-0.23;100.00;99127.56;4985862;28;20039;-73
2021/01/23 09:29:59;;;;;;;13.10;8.83;;;;;;;-0.20;100.00;99124.97;4966493;28;20508;-74
2021/01/23 09:32:26;;;;;;;14.17;9.73;;;;;;;-0.18;100.00;99124.94;4968050;28;20137;-73
2021/01/23 09:34:54;;;;;;;16.37;10.63;;;;;;;-0.16;100.00;99124.09;4986518;28;20499;-73
2021/01/23 09:37:23;;;;;;;15.20;10.30;;;;;;;-0.14;100.00;99117.16;4986664;28;20049;-73
2021/01/23 09:39:49;;;;;;;15.50;10.40;;;;;;;-0.12;100.00;99125.81;4985675;28;20046;-73
2021/01/23 09:42:15;;;;;;;13.87;9.00;;;;;;;-0.11;100.00;99104.16;4950336;28;20431;-74
2021/01/23 09:44:41;;;;;;;11.20;7.73;;;;;;;-0.08;100.00;99109.38;4969343;28;20069;-73
2021/01/23 09:47:09;;;;;;;12.33;7.93;;;;;;;-0.06;100.00;99092.06;4979564;28;20038;-73
2021/01/23 09:49:36;;;;;;;12.97;8.93;;;;;;;-0.06;100.00;99089.47;4983734;28;20056;-73
2021/01/23 09:52:03;;;;;;;12.20;8.00;;;;;;;-0.04;100.00;99089.44;4966311;28;20048;-73
2021/01/23 09:54:30;;;;;;;9.30;6.57;;;;;;;-0.03;100.00;99084.25;4966799;28;20042;-73
2021/01/23 09:57:01;;;;;;;11.43;7.47;;;;;;;0.02;100.00;99085.97;4986013;28;20049;-73
2021/01/23 09:59:27;;;;;;;8.83;5.80;;;;;;;0.04;100.00;99089.44;4967524;28;20042;-73
2021/01/23 10:01:53;;;;;;;7.63;5.70;;;;;;;0.05;100.00;99086.81;4961597;28;20034;-73
2021/01/23 10:04:20;;;;;;;10.87;5.50;;;;;;;0.06;100.00;99072.97;4967606;28;20036;-73
2021/01/23 10:06:46;;;;;;;7.63;5.10;;;;;;;0.09;100.00;99074.72;4950611;28;20050;-73
2021/01/23 10:09:12;;;;;;;6.93;4.60;;;;;;;0.12;100.00;99078.16;4984868;28;20042;-74
2021/01/23 10:11:39;;;;;;;9.37;4.97;;;;;;;0.13;100.00;99076.41;4985757;28;20132;-73
2021/01/23 10:14:05;;;;;;;6.43;4.23;;;;;;;0.14;100.00;99076.41;4966692;28;20038;-74
2021/01/23 10:16:31;;;;;;;7.73;4.60;;;;;;;0.17;100.00;99072.91;4985983;28;20042;-74
2021/01/23 10:19:01;;;;;;;10.33;5.07;;;;;;;0.18;100.00;99072.94;4968536;28;20663;-73
2021/01/23 10:21:31;;;;;;;8.27;5.33;;;;;;;0.20;100.00;99067.72;4966690;28;20046;-73
2021/01/23 10:23:58;;;;;;;8.70;5.50;;;;;;;0.21;100.00;99054.72;4972058;28;20097;-74
2021/01/23 10:26:28;;;;;;;9.57;6.03;;;;;;;0.23;100.00;99055.56;4989016;28;20132;-73
2021/01/23 10:28:54;;;;;;;8.00;5.33;;;;;;;0.27;100.00;99061.63;4971528;28;20042;-74
2021/01/23 10:31:23;;;;;;;9.17;5.53;;;;;;;0.30;100.00;99056.41;4965773;28;20042;-73
2021/01/23 10:33:49;;;;;;;10.10;6.40;;;;;;;0.33;100.00;99056.38;4969921;28;20070;-73
2021/01/23 10:36:16;;;;;;;11.60;6.03;;;;;;;0.35;100.00;99048.63;4954602;28;20105;-73
2021/01/23 10:38:42;;;;;;;10.77;6.27;;;;;;;0.38;100.00;99039.06;4990471;28;20318;-73
2021/01/23 10:41:08;;;;;;;11.37;6.67;;;;;;;0.41;100.00;99039.03;4974548;28;20096;-73
2021/01/23 10:43:34;;;;;;;12.50;6.87;;;;;;;0.45;100.00;99042.50;4968506;28;20095;-73
2021/01/23 10:46:03;;;;;;;9.83;6.20;;;;;;;0.48;100.00;99035.53;4984992;28;20038;-73
2021/01/23 10:48:29;;;;;;;12.33;6.47;;;;;;;0.51;100.00;99030.34;4971151;28;20050;-73
2021/01/23 10:50:57;;;;;;;11.10;6.53;;;;;;;0.55;100.00;99034.63;4971961;28;20104;-73
2021/01/23 10:53:23;;;;;;;11.40;6.93;;;;;;;0.57;100.00;99034.59;4988568;28;20046;-73
2021/01/23 10:55:49;;;;;;;13.57;7.37;;;;;;;0.60;100.00;99038.94;4967112;28;20042;-73
2021/01/23 10:58:15;;;;;;;10.70;7.03;;;;;;;0.60;100.00;99034.63;4971686;28;20721;-73
2021/01/23 11:00:41;;;;;;;11.93;7.33;;;;;;;0.61;100.00;99035.47;4989913;28;20053;-73
2021/01/23 11:03:07;;;;;;;12.13;7.63;;;;;;;0.62;100.00;99029.41;4975942;28;20093;-73
2021/01/23 11:05:34;;;;;;;15.10;8.40;;;;;;;0.63;100.00;99026.78;4970997;28;20046;-73
2021/01/23 11:08:00;;;;;;;12.90;6.87;;;;;;;0.63;100.00;99020.72;4988320;28;20041;-73
2021/01/23 11:10:26;;;;;;;12.83;7.30;;;;;;;0.65;100.00;99017.22;4968716;28;20046;-73
2021/01/23 11:12:52;;;;;;;13.97;7.70;;;;;;;0.68;100.00;99026.75;4970210;28;20042;-73
2021/01/23 11:15:18;;;;;;;16.63;9.37;;;;;;;0.70;100.00;99017.22;4989087;28;20128;-73
2021/01/23 11:17:45;;;;;;;13.50;8.20;;;;;;;0.71;100.00;99026.72;4952224;28;20101;-73
2021/01/23 11:20:11;;;;;;;14.60;8.73;;;;;;;0.73;100.00;99019.78;4987958;28;20513;-73
2021/01/23 11:22:37;;;;;;;15.80;8.67;;;;;;;0.74;100.00;99021.50;4983947;28;20043;-73
2021/01/23 11:25:05;;;;;;;15.47;9.27;;;;;;;0.76;100.00;99015.44;4988027;28;20038;-73
2021/01/23 11:27:32;;;;;;;16.27;8.77;;;;;;;0.79;100.00;99007.59;4970483;28;20046;-74
2021/01/23 11:29:58;;;;;;;17.77;8.93;;;;;;;0.83;100.00;99011.91;4972151;28;20487;-74
2021/01/23 11:32:24;;;;;;;16.67;8.97;;;;;;;0.84;100.00;99000.66;4986510;28;20105;-73